Time;durP1;ratioP1;P1;durP2;ratioP2;P2;SDS_P1;SDS_P2;PMS_P1;PMS_P2;Temp;Humidity;BMP_temperature;BMP_pressure;BME280_temperature;BME280_humidity;BME280_pressure;Samples;Min_cycle;Max_cycle;Signal;HPM_P1;HPM_P2
2023/04/18 00:00:23;;;;;;;;;;;;;;;9.49;100.00;101741.50;4942650;29;19999;-86
2023/04/18 00:02:52;;;;;;;;;;;;;;;9.48;100.00;101745.06;4890755;29;19990;-86
2023/04/18 00:05:18;;;;;;;;;;;;;;;9.50;100.00;101746.66;4903584;29;19998;-86
2023/04/18 00:07:44;;;;;;;;;;;;;;;9.53;100.00;101749.09;4923893;29;20009;-87
2023/04/18 00:10:10;;;;;;;;;;;;;;;9.52;100.00;101750.03;4910405;29;19998;-86
2023/04/18 00:12:36;;;;;;;;;;;;;;;9.52;100.00;101749.19;4902349;29;20303;-86
2023/04/18 00:15:03;;;;;;;;;;;;;;;9.49;100.00;101742.31;4914318;29;19923;-86
2023/04/18 00:17:31;;;;;;;;;;;;;;;9.48;100.00;101739.78;4904985;29;19927;-86
2023/04/18 00:19:57;;;;;;;;;;;;;;;9.45;100.00;101738.22;4904676;29;19919;-86
2023/04/18 00:22:23;;;;;;;;;;;;;;;9.42;100.00;101741.91;4919539;29;20288;-87
2023/04/18 00:24:49;;;;;;;;;;;;;;;9.39;100.00;101734.22;4889708;29;20014;-86
2023/04/18 00:27:15;;;;;;;;;;;;;;;9.35;100.00;101739.81;4903973;29;19926;-87
2023/04/18 00:29:41;;;;;;;;;;;;;;;9.33;100.00;101739.06;4907416;29;19923;-87
2023/04/18 00:32:07;;;;;;;;;;;;;;;9.27;100.00;101740.31;4913612;29;19926;-87
2023/04/18 00:34:32;;;;;;;;;;;;;;;9.20;100.00;101733.75;4905740;29;19919;-87
2023/04/18 00:36:58;;;;;;;;;;;;;;;9.10;100.00;101739.66;4900337;29;19923;-86
2023/04/18 00:39:23;;;;;;;;;;;;;;;9.03;100.00;101733.94;4903419;29;19919;-86
2023/04/18 00:41:49;;;;;;;;;;;;;;;8.99;100.00;101732.44;4898963;29;19956;-87
2023/04/18 00:44:14;;;;;;;;;;;;;;;8.94;100.00;101737.19;4901265;29;19925;-86
2023/04/18 00:46:40;;;;;;;;;;;;;;;8.87;100.00;101735.91;4911199;29;19927;-87
2023/04/18 00:49:06;;;;;;;;;;;;;;;8.83;100.00;101737.03;4903637;29;20032;-87
2023/04/18 00:51:33;;;;;;;;;;;;;;;8.76;100.00;101732.16;4892402;29;20281;-86
2023/04/18 00:53:59;;;;;;;;;;;;;;;8.68;100.00;101737.09;4936714;28;19927;-87
2023/04/18 00:56:25;;;;;;;;;;;;;;;8.63;100.00;101729.47;4913839;29;19919;-86
2023/04/18 00:58:51;;;;;;;;;;;;;;;8.57;100.00;101729.88;4920718;29;20068;-87
2023/04/18 01:01:17;;;;;;;;;;;;;;;8.56;100.00;101726.41;4897128;29;19958;-87
2023/04/18 01:03:43;;;;;;;;;;;;;;;8.60;100.00;101728.84;4903344;29;19927;-87
2023/04/18 01:06:09;;;;;;;;;;;;;;;8.59;100.00;101722.72;4908231;29;19919;-87
2023/04/18 01:08:35;;;;;;;;;;;;;;;8.62;100.00;101721.69;4899471;29;19919;-86
2023/04/18 01:11:00;;;;;;;;;;;;;;;8.66;100.00;101721.38;4911001;29;20364;-87
2023/04/18 01:13:26;;;;;;;;;;;;;;;8.63;100.00;101711.03;4883723;29;19919;-86
2023/04/18 01:15:53;;;;;;;;;;;;;;;8.61;100.00;101723.47;4901899;29;20526;-87
2023/04/18 01:18:19;;;;;;;;;;;;;;;8.59;100.00;101721.88;4888682;29;19923;-87
2023/04/18 01:20:49;;;;;;;;;;;;;;;8.63;100.00;101720.75;4917248;29;19965;-87
2023/04/18 01:23:16;;;;;;;;;;;;;;;8.72;100.00;101720.16;4930157;29;20372;-87
2023/04/18 01:25:42;;;;;;;;;;;;;;;8.83;100.00;101716.81;4909848;29;20321;-86
2023/04/18 01:28:08;;;;;;;;;;;;;;;8.93;100.00;101719.69;4937385;28;19919;-86
2023/04/18 01:30:34;;;;;;;;;;;;;;;9.03;100.00;101717.28;4926312;29;20004;-86
2023/04/18 01:33:00;;;;;;;;;;;;;;;8.98;100.00;101714.91;4904863;29;19926;-87
2023/04/18 01:35:26;;;;;;;;;;;;;;;8.91;100.00;101711.88;4926230;29;19934;-86
2023/04/18 01:37:56;;;;;;;;;;;;;;;8.85;100.00;101706.16;4898288;29;19966;-87
2023/04/18 01:40:21;;;;;;;;;;;;;;;8.86;100.00;101703.41;4913814;29;19923;-87
2023/04/18 01:42:47;;;;;;;;;;;;;;;8.89;100.00;101705.00;4900634;29;19923;-87
2023/04/18 01:45:13;;;;;;;;;;;;;;;8.92;100.00;101705.63;4931860;29;20001;-87
2023/04/18 01:47:39;;;;;;;;;;;;;;;8.95;100.00;101696.66;4925506;29;19934;-87
2023/04/18 01:50:05;;;;;;;;;;;;;;;8.98;100.00;101704.38;4913542;29;20447;-86
2023/04/18 01:52:31;;;;;;;;;;;;;;;9.03;100.00;101702.28;4939853;29;20272;-87
2023/04/18 01:54:57;;;;;;;;;;;;;;;9.02;100.00;101702.38;4895465;29;19920;-87
2023/04/18 01:57:22;;;;;;;;;;;;;;;9.04;100.00;101697.84;4934752;29;19923;-86
2023/04/18 01:59:48;;;;;;;;;;;;;;;9.08;100.00;101693.22;4916247;29;19925;-87
2023/04/18 02:02:14;;;;;;;;;;;;;;;9.12;100.00;101697.34;4925018;29;19931;-87
2023/04/18 02:04:39;;;;;;;;;;;;;;;9.15;100.00;101697.13;4916422;29;19918;-87
2023/04/18 02:07:08;;;;;;;;;;;;;;;9.14;100.00;101691.00;4919280;29;19942;-87
2023/04/18 02:09:34;;;;;;;;;;;;;;;9.14;100.00;101685.72;4925114;29;20372;-87
2023/04/18 02:12:01;;;;;;;;;;;;;;;9.12;100.00;101684.16;4914788;29;19919;-86
2023/04/18 02:14:29;;;;;;;;;;;;;;;9.13;100.00;101691.09;4886758;29;20372;-86
2023/04/18 02:16:59;;;;;;;;;;;;;;;9.12;100.00;101681.50;4907565;29;19971;-87
2023/04/18 02:19:25;;;;;;;;;;;;;;;9.06;100.00;101686.25;4929154;29;20328;-86
2023/04/18 02:21:50;;;;;;;;;;;;;;;8.96;100.00;101686.97;4931964;29;19962;-86
2023/04/18 02:24:16;;;;;;;;;;;;;;;8.91;100.00;101684.66;4912646;29;19978;-86
2023/04/18 02:26:42;;;;;;;;;;;;;;;8.88;100.00;101682.22;4917755;29;19926;-86
2023/04/18 02:29:09;;;;;;;;;;;;;;;8.81;100.00;101679.13;4914013;29;19919;-87
2023/04/18 02:31:39;;;;;;;;;;;;;;;8.77;100.00;101691.69;4912083;29;19926;-87
2023/04/18 02:34:05;;;;;;;;;;;;;;;8.71;100.00;101689.47;4909496;29;19919;-86
2023/04/18 02:36:30;;;;;;;;;;;;;;;8.67;100.00;101686.19;4924936;29;20660;-87
2023/04/18 02:38:56;;;;;;;;;;;;;;;8.66;100.00;101688.91;4910245;29;19978;-86
2023/04/18 02:41:22;;;;;;;;;;;;;;;8.67;100.00;101685.31;4919146;29;19950;-86
2023/04/18 02:43:47;;;;;;;;;;;;;;;8.69;100.00;101684.25;4925968;29;19919;-87
2023/04/18 02:46:15;;;;;;;;;;;;;;;8.68;100.00;101682.59;4918861;29;19950;-86
2023/04/18 02:48:41;;;;;;;;;;;;;;;8.64;100.00;101682.91;4903914;29;20384;-87
2023/04/18 02:51:10;;;;;;;;;;;;;;;8.59;100.00;101683.19;4888879;29;19919;-86
2023/04/18 02:53:37;;;;;;;;;;;;;;;8.58;100.00;101678.88;4920857;29;19918;-86
2023/04/18 02:56:03;;;;;;;;;;;;;;;8.58;100.00;101688.56;4914449;29;19922;-87
2023/04/18 02:58:49;;;;;;;;;;;;;;;8.60;100.00;101676.97;4905110;29;19974;-87
2023/04/18 03:01:33;;;;;;;;;;;;;;;8.58;100.00;101678.88;4923611;29;19923;-87
2023/04/18 03:04:08;;;;;;;;;;;;;;;8.55;100.00;101681.72;4929329;29;19923;-87
2023/04/18 03:06:41;;;;;;;;;;;;;;;8.50;100.00;101686.41;4913270;29;19933;-87
2023/04/18 03:09:07;;;;;;;;;;;;;;;8.52;100.00;101687.97;4913939;29;19925;-86
2023/04/18 03:11:35;;;;;;;;;;;;;;;8.51;100.00;101682.81;4910688;29;19939;-87
2023/04/18 03:14:01;;;;;;;;;;;;;;;8.42;100.00;101677.22;4905513;29;20280;-86
2023/04/18 03:16:34;;;;;;;;;;;;;;;8.43;100.00;101681.53;4900158;29;19966;-86
2023/04/18 03:19:01;;;;;;;;;;;;;;;8.44;100.00;101679.75;4916988;29;20352;-86
2023/04/18 03:21:28;;;;;;;;;;;;;;;8.40;100.00;101676.47;4924312;29;19918;-86
2023/04/18 03:23:53;;;;;;;;;;;;;;;8.40;100.00;101687.00;4896820;29;19923;-86
2023/04/18 03:26:21;;;;;;;;;;;;;;;8.39;100.00;101676.56;4924600;29;19922;-86
2023/04/18 03:28:47;;;;;;;;;;;;;;;8.39;100.00;101682.66;4915808;29;20022;-87
2023/04/18 03:31:12;;;;;;;;;;;;;;;8.46;100.00;101680.47;4910504;29;19926;-86
2023/04/18 03:33:43;;;;;;;;;;;;;;;8.49;100.00;101680.28;4927693;29;20013;-86
2023/04/18 03:36:10;;;;;;;;;;;;;;;8.52;100.00;101687.97;4915009;29;20279;-86
2023/04/18 03:38:37;;;;;;;;;;;;;;;8.49;100.00;101685.53;4926450;29;19934;-87
2023/04/18 03:41:03;;;;;;;;;;;;;;;8.42;100.00;101685.13;4924926;29;19923;-87
2023/04/18 03:43:32;;;;;;;;;;;;;;;8.40;100.00;101683.50;4894355;29;19919;-87
2023/04/18 03:45:58;;;;;;;;;;;;;;;8.39;100.00;101684.47;4924862;29;19994;-86
2023/04/18 03:48:23;;;;;;;;;;;;;;;8.40;100.00;101684.38;4922444;29;20340;-86
2023/04/18 03:50:49;;;;;;;;;;;;;;;8.41;100.00;101682.56;4931382;29;19954;-86
2023/04/18 03:53:15;;;;;;;;;;;;;;;8.38;100.00;101693.28;4874052;29;20364;-81
2023/04/18 03:55:41;;;;;;;;;;;;;;;8.34;100.00;101687.41;4905289;29;20021;-81
2023/04/18 03:58:09;;;;;;;;;;;;;;;8.26;100.00;101687.91;4905019;29;19934;-86
2023/04/18 04:00:35;;;;;;;;;;;;;;;8.18;100.00;101688.38;4927016;29;19918;-86
2023/04/18 04:03:06;;;;;;;;;;;;;;;8.21;100.00;101692.59;4906957;29;19989;-86
2023/04/18 04:05:31;;;;;;;;;;;;;;;8.31;100.00;101688.44;4905148;29;19922;-87
2023/04/18 04:07:57;;;;;;;;;;;;;;;8.41;100.00;101686.03;4928048;29;19919;-86
2023/04/18 04:10:23;;;;;;;;;;;;;;;8.52;100.00;101690.63;4890040;29;19926;-87
2023/04/18 04:12:50;;;;;;;;;;;;;;;8.61;100.00;101691.00;4895521;29;20398;-86
2023/04/18 04:15:16;;;;;;;;;;;;;;;8.63;100.00;101683.84;4922784;29;19927;-86
2023/04/18 04:17:56;;;;;;;;;;;;;;;8.65;100.00;101680.16;4936639;29;19931;-86
2023/04/18 04:20:23;;;;;;;;;;;;;;;8.68;100.00;101679.09;4925185;29;19966;-86
2023/04/18 04:22:55;;;;;;;;;;;;;;;8.71;100.00;101668.38;4943041;28;19919;-87
2023/04/18 04:25:23;;;;;;;;;;;;;;;8.73;100.00;101677.00;4930272;29;20283;-86
2023/04/18 04:27:52;;;;;;;;;;;;;;;8.73;100.00;101674.38;4909272;29;20010;-86
2023/04/18 04:30:20;;;;;;;;;;;;;;;8.74;100.00;101678.72;4905190;29;20066;-86
2023/04/18 04:32:46;;;;;;;;;;;;;;;8.78;100.00;101674.91;4912478;29;20001;-86
2023/04/18 04:35:12;;;;;;;;;;;;;;;8.86;100.00;101676.19;4906191;29;20013;-86
2023/04/18 04:37:40;;;;;;;;;;;;;;;8.89;100.00;101670.72;4895481;29;20063;-86
2023/04/18 04:40:17;;;;;;;;;;;;;;;8.91;100.00;101669.69;4904909;29;19926;-86
2023/04/18 04:42:52;;;;;;;;;;;;;;;8.93;100.00;101674.84;4907467;29;19926;-86
2023/04/18 04:45:23;;;;;;;;;;;;;;;8.95;100.00;101670.28;4918720;29;20376;-86
2023/04/18 04:47:51;;;;;;;;;;;;;;;8.95;100.00;101672.09;4897275;29;19949;-86
2023/04/18 04:50:17;;;;;;;;;;;;;;;8.96;100.00;101673.78;4908810;29;19950;-86
2023/04/18 04:52:42;;;;;;;;;;;;;;;8.98;100.00;101672.72;4917985;29;20432;-86
2023/04/18 04:55:08;;;;;;;;;;;;;;;9.04;100.00;101672.34;4918869;29;19918;-86
2023/04/18 04:57:34;;;;;;;;;;;;;;;9.03;100.00;101673.28;4914625;29;19930;-85
2023/04/18 05:00:07;;;;;;;;;;;;;;;9.02;100.00;101673.38;4908191;29;19919;-86
2023/04/18 05:02:33;;;;;;;;;;;;;;;9.04;100.00;101674.13;4884661;29;19970;-86
2023/04/18 05:04:58;;;;;;;;;;;;;;;9.08;100.00;101672.13;4912898;29;20006;-86
2023/04/18 05:07:24;;;;;;;;;;;;;;;9.12;100.00;101673.59;4923137;29;20383;-85
2023/04/18 05:09:52;;;;;;;;;;;;;;;9.15;100.00;101665.47;4927964;29;19966;-86
2023/04/18 05:12:18;;;;;;;;;;;;;;;9.13;100.00;101676.13;4942558;28;20431;-86
2023/04/18 05:14:43;;;;;;;;;;;;;;;9.12;100.00;101673.59;4913175;29;19919;-86
2023/04/18 05:17:09;;;;;;;;;;;;;;;9.18;100.00;101673.19;4924678;29;19927;-86
2023/04/18 05:19:34;;;;;;;;;;;;;;;9.26;100.00;101684.06;4912577;29;19933;-86
2023/04/18 05:22:00;;;;;;;;;;;;;;;9.29;100.00;101683.84;4916079;29;20035;-86
2023/04/18 05:24:25;;;;;;;;;;;;;;;9.29;100.00;101678.56;4926219;29;19926;-87
2023/04/18 05:26:51;;;;;;;;;;;;;;;9.35;100.00;101676.47;4947987;29;19942;-86
2023/04/18 05:29:17;;;;;;;;;;;;;;;9.38;100.00;101677.09;4912493;29;19923;-86
2023/04/18 05:31:43;;;;;;;;;;;;;;;9.41;100.00;101674.22;4929440;29;20435;-86
2023/04/18 05:34:08;;;;;;;;;;;;;;;9.42;100.00;101681.22;4928026;29;19922;-86
2023/04/18 05:36:34;;;;;;;;;;;;;;;9.43;100.00;101688.19;4917559;29;20425;-86
2023/04/18 05:38:59;;;;;;;;;;;;;;;9.47;100.00;101685.31;4933687;29;19957;-86
2023/04/18 05:41:25;;;;;;;;;;;;;;;9.52;100.00;101684.03;4937322;28;19962;-86
2023/04/18 05:43:51;;;;;;;;;;;;;;;9.58;100.00;101690.72;4911502;29;19950;-86
2023/04/18 05:46:16;;;;;;;;;;;;;;;9.63;100.00;101687.75;4923805;29;19926;-87
2023/04/18 05:48:42;;;;;;;;;;;;;;;9.65;100.00;101688.50;4927409;29;20006;-86
2023/04/18 05:51:08;;;;;;;;;;;;;;;9.66;100.00;101691.03;4927292;29;21167;-86
2023/04/18 05:53:34;;;;;;;;;;;;;;;9.67;100.00;101686.56;4921466;29;19919;-86
2023/04/18 05:56:00;;;;;;;;;;;;;;;9.71;100.00;101693.34;4878619;29;19934;-86
2023/04/18 05:58:27;;;;;;;;;;;;;;;9.78;100.00;101693.72;4914574;28;20486;-86
2023/04/18 06:00:53;;;;;;;;;;;;;;;9.81;100.00;101696.16;4943904;29;19954;-86
2023/04/18 06:03:18;;;;;;;;;;;;;;;9.82;100.00;101692.56;4897450;29;19969;-86
2023/04/18 06:05:44;;;;;;;;;;;;;;;9.78;100.00;101693.72;4910360;29;20308;-86
2023/04/18 06:08:10;;;;;;;;;;;;;;;9.73;100.00;101699.34;4924865;29;19926;-87
2023/04/18 06:10:35;;;;;;;;;;;;;;;9.75;100.00;101699.22;4909635;29;19931;-86
2023/04/18 06:13:01;;;;;;;;;;;;;;;9.83;100.00;101701.31;4937583;29;19950;-86
2023/04/18 06:15:27;;;;;;;;;;;;;;;9.87;100.00;101705.47;4920781;29;20269;-86
2023/04/18 06:17:52;;;;;;;;;;;;;;;9.88;100.00;101702.72;4910679;29;19929;-86
2023/04/18 06:20:18;;;;;;;;;;;;;;;9.87;100.00;101710.75;4924370;29;20367;-87
2023/04/18 06:22:44;;;;;;;;;;;;;;;9.79;100.00;101706.81;4924108;29;19927;-86
2023/04/18 06:25:10;;;;;;;;;;;;;;;9.77;100.00;101702.63;4913261;29;19919;-86
2023/04/18 06:27:36;;;;;;;;;;;;;;;9.83;100.00;101712.75;4924714;29;19929;-86
2023/04/18 06:30:02;;;;;;;;;;;;;;;9.86;100.00;101709.88;4926733;29;19925;-86
2023/04/18 06:32:27;;;;;;;;;;;;;;;9.82;100.00;101704.94;4921026;29;19919;-81
2023/04/18 06:34:53;;;;;;;;;;;;;;;9.82;100.00;101713.69;4927109;29;19922;-81
2023/04/18 06:37:19;;;;;;;;;;;;;;;9.80;100.00;101710.31;4916546;29;20389;-86
2023/04/18 06:39:45;;;;;;;;;;;;;;;9.83;100.00;101712.75;4915932;29;19919;-86
2023/04/18 06:42:10;;;;;;;;;;;;;;;9.87;100.00;101713.38;4894443;29;19925;-86
2023/04/18 06:44:43;;;;;;;;;;;;;;;9.96;100.00;101710.09;4929497;28;19926;-87
2023/04/18 06:47:09;;;;;;;;;;;;;;;10.02;100.00;101712.28;4914033;29;19925;-86
2023/04/18 06:49:35;;;;;;;;;;;;;;;10.04;100.00;101712.19;4931981;29;19919;-86
2023/04/18 06:52:00;;;;;;;;;;;;;;;10.05;100.00;101716.50;4896372;29;19929;-86
2023/04/18 06:54:26;;;;;;;;;;;;;;;10.12;100.00;101715.13;4918898;29;19993;-87
2023/04/18 06:56:52;;;;;;;;;;;;;;;10.18;100.00;101706.75;4929446;29;20009;-87
2023/04/18 06:59:20;;;;;;;;;;;;;;;10.24;100.00;101707.28;4900868;29;20395;-86
2023/04/18 07:01:46;;;;;;;;;;;;;;;10.27;100.00;101713.16;4899495;29;19923;-86
2023/04/18 07:04:12;;;;;;;;;;;;;;;10.30;100.00;101715.56;4905816;29;19923;-86
2023/04/18 07:06:37;;;;;;;;;;;;;;;10.33;100.00;101716.31;4913353;29;19931;-82
2023/04/18 07:09:03;;;;;;;;;;;;;;;10.38;100.00;101719.47;4909721;29;19930;-81
2023/04/18 07:11:28;;;;;;;;;;;;;;;10.41;100.00;101717.47;4916078;29;19920;-81
2023/04/18 07:13:54;;;;;;;;;;;;;;;10.47;100.00;101723.28;4916398;29;19934;-81
2023/04/18 07:16:20;;;;;;;;;;;;;;;10.52;100.00;101721.16;4917066;29;19931;-87
2023/04/18 07:18:45;;;;;;;;;;;;;;;10.57;100.00;101719.03;4921406;29;19927;-87
2023/04/18 07:21:11;;;;;;;;;;;;;;;10.65;100.00;101726.38;4916910;29;19923;-87
2023/04/18 07:23:37;;;;;;;;;;;;;;;10.70;100.00;101726.91;4903364;29;19989;-86
2023/04/18 07:26:04;;;;;;;;;;;;;;;10.77;100.00;101720.19;4905791;29;19919;-87
2023/04/18 07:28:30;;;;;;;;;;;;;;;10.87;100.00;101725.63;4908652;29;19926;-87
2023/04/18 07:30:56;;;;;;;;;;;;;;;10.97;100.00;101724.94;4894513;29;19931;-86
2023/04/18 07:33:22;;;;;;;;;;;;;;;11.03;100.00;101727.97;4920333;29;19923;-87
2023/04/18 07:35:49;;;;;;;;;;;;;;;11.10;100.00;101728.34;4915889;29;19930;-87
2023/04/18 07:38:15;;;;;;;;;;;;;;;11.14;100.00;101724.53;4917849;29;19963;-86
2023/04/18 07:40:41;;;;;;;;;;;;;;;11.19;100.00;101729.47;4917758;29;20715;-87
2023/04/18 07:43:07;;;;;;;;;;;;;;;11.20;100.00;101731.13;4917760;29;19975;-87
2023/04/18 07:45:35;;;;;;;;;;;;;;;11.23;100.00;101722.09;4906118;29;19926;-86
2023/04/18 07:48:01;;;;;;;;;;;;;;;11.28;100.00;101730.56;4904680;29;19919;-87
2023/04/18 07:50:27;;;;;;;;;;;;;;;11.33;100.00;101730.19;4912296;29;20087;-86
2023/04/18 07:52:52;;;;;;;;;;;;;;;11.35;100.00;101736.22;4915499;29;20001;-86
2023/04/18 07:55:18;;;;;;;;;;;;;;;11.32;100.00;101742.59;4889897;29;20457;-86
2023/04/18 07:57:49;;;;;;;;;;;;;;;11.39;100.00;101730.56;4924156;29;19930;-86
2023/04/18 08:00:15;;;;;;;;;;;;;;;11.46;100.00;101738.03;4924094;29;20376;-87
2023/04/18 08:02:41;;;;;;;;;;;;;;;11.44;100.00;101740.81;4899285;29;19972;-86
2023/04/18 08:05:07;;;;;;;;;;;;;;;11.38;100.00;101734.19;4904373;29;20007;-86
2023/04/18 08:07:33;;;;;;;;;;;;;;;11.37;100.00;101735.13;4917354;29;19926;-86
2023/04/18 08:09:58;;;;;;;;;;;;;;;11.47;100.00;101734.44;4891380;29;19930;-87
2023/04/18 08:12:24;;;;;;;;;;;;;;;11.56;100.00;101732.88;4888851;29;19919;-86
2023/04/18 08:14:49;;;;;;;;;;;;;;;11.49;100.00;101736.00;4914168;29;19927;-87
2023/04/18 08:17:15;;;;;;;;;;;;;;;11.58;100.00;101736.28;4899963;29;19930;-86
2023/04/18 08:19:40;;;;;;;;;;;;;;;11.53;100.00;101733.97;4907725;29;20018;-87
2023/04/18 08:22:08;;;;;;;;;;;;;;;11.62;100.00;101740.34;4910934;29;19927;-87
2023/04/18 08:24:33;;;;;;;;;;;;;;;11.54;100.00;101744.44;4905268;29;19933;-87
2023/04/18 08:26:59;;;;;;;;;;;;;;;11.65;100.00;101740.13;4909684;28;20025;-87
2023/04/18 08:29:25;;;;;;;;;;;;;;;11.65;100.00;101738.31;4915722;29;20287;-87
2023/04/18 08:31:51;;;;;;;;;;;;;;;11.73;100.00;101735.06;4913725;29;19925;-87
2023/04/18 08:34:16;;;;;;;;;;;;;;;11.77;100.00;101733.84;4908381;29;20009;-87
2023/04/18 08:36:42;;;;;;;;;;;;;;;11.94;100.00;101731.69;4891258;29;20277;-87
2023/04/18 08:39:07;;;;;;;;;;;;;;;12.11;100.00;101734.81;4892456;29;20014;-87
2023/04/18 08:41:35;;;;;;;;;;;;;;;12.24;100.00;101732.91;4919266;29;19946;-86
2023/04/18 08:44:02;;;;;;;;;;;;;;;12.31;100.00;101735.88;4922532;29;20436;-86
2023/04/18 08:46:28;;;;;;;;;;;;;;;12.21;100.00;101730.50;4896639;29;19934;-86
2023/04/18 08:48:58;;;;;;;;;;;;;;;12.23;100.00;101731.19;4917072;29;19923;-87
2023/04/18 08:51:24;;;;;;;;;;;;;;;12.10;100.00;101728.72;4899581;29;19919;-87
2023/04/18 08:53:50;;;;;;;;;;;;;;;12.31;100.00;101725.28;4887670;29;19930;-87
2023/04/18 08:56:16;;;;;;;;;;;;;;;12.14;100.00;101732.78;4896216;29;19931;-87
2023/04/18 08:58:43;;;;;;;;;;;;;;;12.20;100.00;101727.97;4916946;29;19974;-87
2023/04/18 09:01:09;;;;;;;;;;;;;;;12.43;100.00;101730.53;4887949;29;19930;-86
2023/04/18 09:03:37;;;;;;;;;;;;;;;12.54;100.00;101727.88;4919355;29;19918;-86
2023/04/18 09:06:07;;;;;;;;;;;;;;;12.49;100.00;101725.59;4894451;29;19923;-86
2023/04/18 09:08:34;;;;;;;;;;;;;;;12.54;100.00;101719.91;4911685;29;19919;-87
2023/04/18 09:11:19;;;;;;;;;;;;;;;12.54;100.00;101727.88;4907537;29;19922;-87
2023/04/18 09:13:46;;;;;;;;;;;;;;;12.60;100.00;101724.72;4928291;29;19925;-86
2023/04/18 09:16:13;;;;;;;;;;;;;;;12.45;100.00;101734.78;4907177;29;19923;-87
2023/04/18 09:18:41;;;;;;;;;;;;;;;12.30;100.00;101736.84;4908566;29;19927;-87
2023/04/18 09:21:19;;;;;;;;;;;;;;;12.37;100.00;101722.16;4897702;29;19939;-86
2023/04/18 09:23:49;;;;;;;;;;;;;;;12.50;100.00;101729.91;4905399;29;19919;-86
2023/04/18 09:26:31;;;;;;;;;;;;;;;12.56;100.00;101728.59;4900632;29;19923;-85
2023/04/18 09:28:57;;;;;;;;;;;;;;;12.53;100.00;101726.19;4912233;29;19933;-86
2023/04/18 09:31:22;;;;;;;;;;;;;;;12.63;100.00;101727.13;4911211;29;19923;-86
2023/04/18 09:33:53;;;;;;;;;;;;;;;12.78;100.00;101725.03;4909294;29;20375;-86
2023/04/18 09:36:20;;;;;;;;;;;;;;;12.94;100.00;101726.38;4904131;28;19934;-86
2023/04/18 09:38:49;;;;;;;;;;;;;;;13.04;100.00;101723.81;4909381;29;19955;-86
2023/04/18 09:41:16;;;;;;;;;;;;;;;13.09;100.00;101726.91;4920107;29;19919;-86
2023/04/18 09:43:42;;;;;;;;;;;;;;;13.00;100.00;101731.19;4900445;29;19923;-86
2023/04/18 09:46:08;;;;;;;;;;;;;;;12.95;100.00;101727.25;4910936;29;19918;-87
2023/04/18 09:48:34;;;;;;;;;;;;;;;12.91;100.00;101734.59;4892591;29;19918;-86
2023/04/18 09:51:10;;;;;;;;;;;;;;;12.84;100.00;101726.31;4925851;29;19923;-86
2023/04/18 09:53:39;;;;;;;;;;;;;;;12.93;100.00;101722.06;4921688;29;19970;-86
2023/04/18 09:56:06;;;;;;;;;;;;;;;13.00;100.00;101720.56;4918440;29;19923;-86
2023/04/18 09:58:33;;;;;;;;;;;;;;;13.12;100.00;101717.84;4902414;29;19961;-85
2023/04/18 10:00:59;;;;;;;;;;;;;;;13.31;100.00;101714.47;4908300;29;20076;-85
2023/04/18 10:03:31;;;;;;;;;;;;;;;13.44;100.00;101708.13;4941944;29;20341;-85
2023/04/18 10:05:57;;;;;;;;;;;;;;;13.57;100.00;101707.94;4920691;28;20009;-85
2023/04/18 10:08:22;;;;;;;;;;;;;;;13.72;100.00;101708.41;4911251;29;19919;-86
2023/04/18 10:10:48;;;;;;;;;;;;;;;13.83;100.00;101710.97;4911428;29;19929;-86
2023/04/18 10:13:14;;;;;;;;;;;;;;;14.04;100.00;101696.75;4883655;29;19919;-86
2023/04/18 10:15:39;;;;;;;;;;;;;;;13.90;100.00;101711.28;4926794;29;20458;-86
2023/04/18 10:18:09;;;;;;;;;;;;;;;13.93;100.00;101711.00;4903793;29;19926;-86
2023/04/18 10:20:35;;;;;;;;;;;;;;;14.23;100.00;101706.59;4932551;29;20376;-86
2023/04/18 10:23:20;;;;;;;;;;;;;;;14.21;100.00;101697.06;4916992;29;19923;-86
2023/04/18 10:25:46;;;;;;;;;;;;;;;14.14;100.00;101691.47;4927929;29;19984;-86
2023/04/18 10:28:12;;;;;;;;;;;;;;;14.27;100.00;101699.16;4911943;29;19977;-86
2023/04/18 10:30:40;;;;;;;;;;;;;;;14.48;100.00;101690.22;4909051;29;20510;-86
2023/04/18 10:33:21;;;;;;;;;;;;;;;14.55;100.00;101694.03;4921107;29;19933;-85
2023/04/18 10:35:59;;;;;;;;;;;;;;;14.51;100.00;101693.44;4919684;29;19978;-86
2023/04/18 10:38:25;;;;;;;;;;;;;;;14.51;100.00;101692.59;4909732;29;19923;-86
2023/04/18 10:40:50;;;;;;;;;;;;;;;14.69;100.00;101690.09;4926902;29;20633;-87
2023/04/18 10:43:16;;;;;;;;;;;;;;;14.58;100.00;101696.41;4925809;29;19927;-86
2023/04/18 10:45:42;;;;;;;;;;;;;;;14.61;100.00;101689.94;4934264;29;19918;-86
2023/04/18 10:48:33;;;;;;;;;;;;;;;14.56;100.00;101694.84;4911293;29;20307;-86
2023/04/18 10:51:15;;;;;;;;;;;;;;;14.29;100.00;101699.03;4924152;29;20424;-86
2023/04/18 10:53:50;;;;;;;;;;;;;;;14.50;100.00;101691.78;4930808;29;19923;-86
2023/04/18 10:56:16;;;;;;;;;;;;;;;14.88;100.00;101677.78;4929182;29;20009;-86
2023/04/18 10:58:44;;;;;;;;;;;;;;;15.07;100.00;101687.56;4896085;29;19927;-85
2023/04/18 11:01:13;;;;;;;;;;;;;;;14.92;100.00;101676.53;4927358;29;20395;-86
2023/04/18 11:03:38;;;;;;;;;;;;;;;15.02;100.00;101671.16;4910702;29;19919;-86
2023/04/18 11:06:04;;;;;;;;;;;;;;;15.27;100.00;101678.69;4917684;29;19954;-85
2023/04/18 11:08:30;;;;;;;;;;;;;;;14.93;100.00;101678.19;4931300;29;19918;-86
2023/04/18 11:11:01;;;;;;;;;;;;;;;15.27;100.00;101676.00;4909093;28;19929;-86
2023/04/18 11:13:27;;;;;;;;;;;;;;;15.24;100.00;101679.81;4941020;28;19919;-85
2023/04/18 11:15:52;;;;;;;;;;;;;;;15.08;100.00;101667.91;4923115;29;19923;-86
2023/04/18 11:18:18;;;;;;;;;;;;;;;15.03;100.00;101672.00;4933464;29;19923;-85
2023/04/18 11:20:48;;;;;;;;;;;;;;;14.88;100.00;101675.97;4901101;29;20266;-86
2023/04/18 11:23:20;;;;;;;;;;;;;;;14.66;100.00;101684.22;4917795;29;20443;-86
2023/04/18 11:25:48;;;;;;;;;;;;;;;14.79;100.00;101673.28;4935735;28;19919;-86
2023/04/18 11:28:17;;;;;;;;;;;;;;;15.06;100.00;101672.56;4935825;29;19925;-85
2023/04/18 11:30:43;;;;;;;;;;;;;;;15.07;93.63;101676.06;4930687;29;19969;-85
2023/04/18 11:33:10;;;;;;;;;;;;;;;15.19;100.00;101671.41;4925715;29;19961;-84
2023/04/18 11:35:36;;;;;;;;;;;;;;;15.29;100.00;101672.22;4913419;29;19919;-85
2023/04/18 11:38:02;;;;;;;;;;;;;;;15.15;94.46;101668.19;4937273;29;19990;-85
2023/04/18 11:40:28;;;;;;;;;;;;;;;15.35;96.42;101665.47;4921331;28;19927;-86
2023/04/18 11:42:54;;;;;;;;;;;;;;;15.24;95.04;101656.66;4927044;29;19930;-86
2023/04/18 11:45:19;;;;;;;;;;;;;;;15.34;94.38;101658.44;4923116;29;19926;-85
2023/04/18 11:47:45;;;;;;;;;;;;;;;15.41;100.00;101662.22;4923994;29;19919;-85
2023/04/18 11:50:12;;;;;;;;;;;;;;;15.27;100.00;101668.88;4905541;29;20506;-86
2023/04/18 11:52:38;;;;;;;;;;;;;;;15.18;94.04;101659.91;4906501;29;20054;-86
2023/04/18 11:55:16;;;;;;;;;;;;;;;15.38;96.71;101663.34;4921989;29;19923;-86
2023/04/18 11:57:48;;;;;;;;;;;;;;;15.32;100.00;101647.13;4893426;29;19927;-86
2023/04/18 12:00:14;;;;;;;;;;;;;;;15.51;100.00;101651.53;4922206;29;19984;-86
2023/04/18 12:02:41;;;;;;;;;;;;;;;15.08;89.41;101659.94;4918877;29;19927;-85
2023/04/18 12:05:07;;;;;;;;;;;;;;;15.08;81.73;101661.78;4913414;29;19985;-86
2023/04/18 12:07:34;;;;;;;;;;;;;;;15.19;91.56;101655.44;4938063;28;20376;-85
2023/04/18 12:10:00;;;;;;;;;;;;;;;15.03;80.90;101656.03;4925361;29;20006;-87
2023/04/18 12:12:26;;;;;;;;;;;;;;;15.07;84.59;101657.41;4901008;29;19934;-85
2023/04/18 12:15:02;;;;;;;;;;;;;;;15.21;94.00;101656.13;4921239;29;19919;-85
2023/04/18 12:17:29;;;;;;;;;;;;;;;15.08;89.41;101646.63;4894847;29;20381;-87
2023/04/18 12:19:55;;;;;;;;;;;;;;;15.22;99.40;101641.81;4914903;29;19926;-86
2023/04/18 12:22:56;;;;;;;;;;;;;;;15.03;96.79;101653.38;4882874;29;19919;-86
2023/04/18 12:25:24;;;;;;;;;;;;;;;15.15;93.98;101646.88;4863270;29;20016;-86
2023/04/18 12:27:58;;;;;;;;;;;;;;;14.92;90.95;101638.41;4904226;29;19919;-86
2023/04/18 12:30:26;;;;;;;;;;;;;;;14.72;87.57;101649.03;4920129;29;19930;-86
2023/04/18 12:32:53;;;;;;;;;;;;;;;14.61;100.00;101647.38;4922571;29;19930;-87